Startpagina
METAR-TAF:

METAR-TAF

Vliegvelden :

Aéroport Ajaccio Napoléon Bonaparte

Ajaccio, Frankrijk

breedte: 41-55N, lengte: 008-48E, hoogte: 6 m

Actueel weer

Dit bericht is 20 minuten geleden gemaakt, om 21:00 UTC
Wind 6 kt uit het noordnoordoosten
Temperatuur 11°C
Vochtigheid 87%
Druk 1021 hPa
Zicht 10 km of meer

METAR: LFKJ 242100Z AUTO 03006KT 9999 FEW064/// BKN074/// BKN100/// ///CB 11/09 Q1021 BECMG BKN025

Tijdstip: 22:20 (21:20 UTC)

Verwachting

Dit bericht is 1 uur en het 20 minuten geleden gemaakt, om 20:00 UTC
Verwachting geldig van 24 om 21 UTC tot 25 om 21 UTC
Wind 6 kt uit het noordoosten
Zicht 10 km of meer
Weinig wolken op 3000 ft, Cumulonimbus.
Gebroken wolken op 5000 ft
Wijzigt naar
van 24 om 21 UTC tot 24 om 23 UTC
Gebroken wolken op 2500 ft
lichte regen
Wijzigt naar
van 25 om 06 UTC tot 25 om 08 UTC
Weinig wolken op 3000 ft

TAF: LFKJ 242000Z 2421/2521 05006KT 9999 FEW030CB BKN050 BECMG 2421/2423 -RA BKN025 BECMG 2506/2508 NSW FEW030

Waarnemingen en weersverwachtingen van meer dan 4000 vliegvelden (METAR en TAF).

De beschikbare stations zijn de gele en rode punten op de kaart.

Ga met uw muis naar het station om de naam te zien.

Klik dan om waarnemingen en weersverwachtingen te zien.

kaart wijzigen: klik op de groene knoppen met een zwart kruis om in te zoomen, op de groene knop met een streepje om uit te zoomen of op de groene pijlen voor aangrenzende kaarten.


METAR-TAF: